createdAt,value
2023-09-27T00:01:04.354Z,6.53
2023-09-27T00:03:31.725Z,7.07
2023-09-27T00:05:58.738Z,6.85
2023-09-27T00:08:26.230Z,7.18
2023-09-27T00:10:53.719Z,7.18
2023-09-27T00:13:20.684Z,6.78
2023-09-27T00:15:49.091Z,7.80
2023-09-27T00:18:16.330Z,6.70
2023-09-27T00:20:43.357Z,7.50
2023-09-27T00:23:10.931Z,7.68
2023-09-27T00:25:38.070Z,6.82
2023-09-27T00:28:05.179Z,5.93
2023-09-27T00:30:32.143Z,6.68
2023-09-27T00:33:00.573Z,6.88
2023-09-27T00:35:27.914Z,6.35
2023-09-27T00:37:54.955Z,6.63
2023-09-27T00:40:24.266Z,6.70
2023-09-27T00:42:51.297Z,6.35
2023-09-27T00:45:19.399Z,6.00
2023-09-27T00:47:48.904Z,6.80
2023-09-27T00:50:16.277Z,6.00
2023-09-27T00:52:44.665Z,6.55
2023-09-27T00:55:13.592Z,7.40
2023-09-27T00:57:41.858Z,6.60
2023-09-27T01:00:12.015Z,6.47
2023-09-27T01:02:40.986Z,6.82
2023-09-27T01:05:11.698Z,7.60
2023-09-27T01:07:40.889Z,6.95
2023-09-27T01:10:09.552Z,7.20
2023-09-27T01:12:38.673Z,7.13
2023-09-27T01:15:07.739Z,6.95
2023-09-27T01:17:35.812Z,6.50
2023-09-27T01:20:02.906Z,6.93
2023-09-27T01:22:29.880Z,6.88
2023-09-27T01:24:57.866Z,7.30
2023-09-27T01:27:25.297Z,7.47
2023-09-27T01:29:52.457Z,6.55
2023-09-27T01:32:20.169Z,7.07
2023-09-27T01:34:47.126Z,7.28
2023-09-27T01:37:14.329Z,6.82
2023-09-27T01:39:41.368Z,6.88
2023-09-27T01:42:12.103Z,6.57
2023-09-27T01:44:39.386Z,6.65
2023-09-27T01:47:06.833Z,6.40
2023-09-27T01:49:34.106Z,6.65
2023-09-27T01:52:01.298Z,6.90
2023-09-27T01:54:28.387Z,6.90
2023-09-27T01:56:55.390Z,6.53
2023-09-27T01:59:22.448Z,7.30
2023-09-27T02:01:50.626Z,7.00
2023-09-27T02:04:17.584Z,7.90
2023-09-27T02:06:44.512Z,7.53
2023-09-27T02:09:11.383Z,7.63
2023-09-27T02:11:38.340Z,6.50
2023-09-27T02:14:05.927Z,7.13
2023-09-27T02:16:34.705Z,7.57
2023-09-27T02:19:05.340Z,7.30
2023-09-27T02:21:32.491Z,6.53
2023-09-27T02:23:59.485Z,7.07
2023-09-27T02:26:26.417Z,7.40
2023-09-27T02:28:53.960Z,7.00
2023-09-27T02:31:21.096Z,6.88
2023-09-27T02:33:48.070Z,6.63
2023-09-27T02:36:15.218Z,8.13
2023-09-27T02:38:42.255Z,6.70
2023-09-27T02:41:09.314Z,7.15
2023-09-27T02:43:36.471Z,7.47
2023-09-27T02:46:03.402Z,6.47
2023-09-27T02:48:30.394Z,6.65
2023-09-27T02:50:57.321Z,6.97
2023-09-27T02:53:24.330Z,6.80
2023-09-27T02:55:51.267Z,6.82
2023-09-27T02:58:18.629Z,7.15
2023-09-27T03:00:45.633Z,7.38
2023-09-27T03:03:15.011Z,7.57
2023-09-27T03:05:42.346Z,6.65
2023-09-27T03:08:09.498Z,6.97
2023-09-27T03:10:40.164Z,7.80
2023-09-27T03:13:09.263Z,6.95
2023-09-27T03:15:39.202Z,7.00
2023-09-27T03:18:06.757Z,7.32
2023-09-27T03:20:34.112Z,7.70
2023-09-27T03:23:01.267Z,7.80
2023-09-27T03:25:28.248Z,7.75
2023-09-27T03:27:55.722Z,7.75
2023-09-27T03:30:22.812Z,7.35
2023-09-27T03:32:49.866Z,8.75
2023-09-27T03:35:17.059Z,7.47
2023-09-27T03:37:45.981Z,8.30
2023-09-27T03:40:15.375Z,7.70
2023-09-27T03:42:47.242Z,7.32
2023-09-27T03:45:16.776Z,7.35
2023-09-27T03:47:46.340Z,8.25
2023-09-27T03:50:13.901Z,8.35
2023-09-27T03:52:41.845Z,8.20
2023-09-27T03:55:09.993Z,8.60
2023-09-27T03:57:37.125Z,8.57
2023-09-27T04:00:08.371Z,8.75
2023-09-27T04:02:35.400Z,8.32
2023-09-27T04:05:03.839Z,8.50
2023-09-27T04:07:30.871Z,8.70
2023-09-27T04:09:57.962Z,9.10
2023-09-27T04:12:24.971Z,8.65
2023-09-27T04:14:52.062Z,8.80
2023-09-27T04:17:19.223Z,7.93
2023-09-27T04:19:46.351Z,8.60
2023-09-27T04:22:13.439Z,7.68
2023-09-27T04:24:40.556Z,6.38
2023-09-27T04:27:07.550Z,7.45
2023-09-27T04:29:34.501Z,6.65
2023-09-27T04:32:01.674Z,7.00
2023-09-27T04:34:29.424Z,7.43
2023-09-27T04:36:56.588Z,8.63
2023-09-27T04:39:28.349Z,11.18
2023-09-27T04:41:55.443Z,10.93
2023-09-27T04:44:22.446Z,8.95
2023-09-27T04:46:49.704Z,9.73
2023-09-27T04:49:16.784Z,9.10
2023-09-27T04:51:43.897Z,7.90
2023-09-27T04:54:10.882Z,7.35
2023-09-27T04:56:38.006Z,6.97
2023-09-27T04:59:06.742Z,7.20
2023-09-27T05:01:33.887Z,6.93
2023-09-27T05:04:01.078Z,6.95
2023-09-27T05:06:28.012Z,6.75
2023-09-27T05:08:55.030Z,6.85
2023-09-27T05:11:22.002Z,6.93
2023-09-27T05:13:48.871Z,7.30
2023-09-27T05:16:16.100Z,7.68
2023-09-27T05:18:43.144Z,7.85
2023-09-27T05:21:10.074Z,8.10
2023-09-27T05:23:37.073Z,7.90
2023-09-27T05:26:04.208Z,8.48
2023-09-27T05:28:32.701Z,8.75
2023-09-27T05:31:01.445Z,9.68
2023-09-27T05:33:29.090Z,9.43
2023-09-27T05:35:56.158Z,9.25
2023-09-27T05:38:23.213Z,9.38
2023-09-27T05:40:50.305Z,9.00
2023-09-27T05:43:17.247Z,9.18
2023-09-27T05:45:44.181Z,8.68
2023-09-27T05:48:11.369Z,9.70
2023-09-27T05:50:39.161Z,9.65
2023-09-27T05:53:06.381Z,9.05
2023-09-27T05:55:33.491Z,9.50
2023-09-27T05:58:00.887Z,8.75
2023-09-27T06:00:33.143Z,8.65
2023-09-27T06:03:00.666Z,8.55
2023-09-27T06:05:28.189Z,9.25
2023-09-27T06:07:55.080Z,9.43
2023-09-27T06:10:23.513Z,8.10
2023-09-27T06:12:50.774Z,8.70
2023-09-27T06:15:18.787Z,10.10
2023-09-27T06:17:46.042Z,9.48
2023-09-27T06:20:20.916Z,8.80
2023-09-27T06:22:53.817Z,8.98
2023-09-27T06:25:24.538Z,9.07
2023-09-27T06:27:52.926Z,9.65
2023-09-27T06:30:21.783Z,9.68
2023-09-27T06:32:49.529Z,8.80
2023-09-27T06:35:16.976Z,9.40
2023-09-27T06:37:45.555Z,9.45
2023-09-27T06:40:17.789Z,9.88
2023-09-27T06:42:45.621Z,9.60
2023-09-27T06:45:14.406Z,9.82
2023-09-27T06:47:42.793Z,9.18
2023-09-27T06:50:10.745Z,8.88
2023-09-27T06:52:40.878Z,8.88
2023-09-27T06:55:11.628Z,9.10
2023-09-27T06:57:42.132Z,8.40
2023-09-27T07:00:30.234Z,9.27
2023-09-27T07:02:58.222Z,9.00
2023-09-27T07:05:27.432Z,8.70
2023-09-27T07:07:55.682Z,8.38
2023-09-27T07:10:24.209Z,8.95
2023-09-27T07:12:51.377Z,9.00
2023-09-27T07:15:18.420Z,8.88
2023-09-27T07:17:48.183Z,8.38
2023-09-27T07:20:29.227Z,8.77
2023-09-27T07:22:56.846Z,9.52
2023-09-27T07:25:24.643Z,8.15
2023-09-27T07:27:55.069Z,8.40
2023-09-27T07:30:28.156Z,9.52
2023-09-27T07:32:56.458Z,8.07
2023-09-27T07:35:25.592Z,8.10
2023-09-27T07:37:52.549Z,8.55
2023-09-27T07:40:19.993Z,8.27
2023-09-27T07:42:48.954Z,8.85
2023-09-27T07:45:22.905Z,7.88
2023-09-27T07:47:54.911Z,8.02
2023-09-27T07:50:23.351Z,7.85
2023-09-27T07:52:50.402Z,8.45
2023-09-27T07:55:19.055Z,7.85
2023-09-27T07:57:46.982Z,8.57
2023-09-27T08:00:20.151Z,8.43
2023-09-27T08:02:48.060Z,9.05
2023-09-27T08:05:18.166Z,8.27
2023-09-27T08:07:45.760Z,9.07
2023-09-27T08:10:20.798Z,8.50
2023-09-27T08:12:49.626Z,9.27
2023-09-27T08:15:19.020Z,8.25
2023-09-27T08:17:47.678Z,8.38
2023-09-27T08:20:15.105Z,7.72
2023-09-27T08:22:42.729Z,8.35
2023-09-27T08:25:15.745Z,7.78
2023-09-27T08:27:43.936Z,7.97
2023-09-27T08:30:13.302Z,7.72
2023-09-27T08:32:42.437Z,8.25
2023-09-27T08:35:10.938Z,8.07
2023-09-27T08:37:38.123Z,8.68
2023-09-27T08:40:14.366Z,8.68
2023-09-27T08:42:43.401Z,7.55
2023-09-27T08:45:15.345Z,8.57
2023-09-27T08:47:44.389Z,8.55
2023-09-27T08:50:15.444Z,7.88
2023-09-27T08:52:47.918Z,7.85
2023-09-27T08:55:16.268Z,8.00
2023-09-27T08:57:53.184Z,6.85
2023-09-27T09:00:28.381Z,8.70
2023-09-27T09:03:01.485Z,8.18
2023-09-27T09:05:31.093Z,8.40
2023-09-27T09:08:05.424Z,8.50
2023-09-27T09:10:32.594Z,8.07
2023-09-27T09:13:01.350Z,8.77
2023-09-27T09:15:42.773Z,8.68
2023-09-27T09:18:16.457Z,8.23
2023-09-27T09:20:58.479Z,7.93
2023-09-27T09:23:34.993Z,8.20
2023-09-27T09:26:07.487Z,8.40
2023-09-27T09:28:36.938Z,8.40
2023-09-27T09:31:04.254Z,8.23
2023-09-27T09:33:38.044Z,7.53
2023-09-27T09:36:05.388Z,7.60
2023-09-27T09:38:33.333Z,7.78
2023-09-27T09:41:02.520Z,7.65
2023-09-27T09:43:37.848Z,7.57
2023-09-27T09:46:11.762Z,7.40
2023-09-27T09:48:43.265Z,7.18
2023-09-27T09:51:12.767Z,7.63
2023-09-27T09:53:42.375Z,7.15
2023-09-27T09:58:55.832Z,7.18
2023-09-27T10:01:29.700Z,7.13
2023-09-27T10:03:59.639Z,8.35
2023-09-27T10:06:45.148Z,6.85
2023-09-27T10:09:16.571Z,8.20
2023-09-27T10:11:49.517Z,7.57
2023-09-27T10:14:18.365Z,7.75
2023-09-27T10:16:45.922Z,8.68
2023-09-27T10:19:14.368Z,8.38
2023-09-27T10:22:05.896Z,8.50
2023-09-27T10:24:42.256Z,7.68
2023-09-27T10:27:09.487Z,7.60
2023-09-27T10:29:56.332Z,7.15
2023-09-27T10:32:24.184Z,7.05
2023-09-27T10:34:53.109Z,6.35
2023-09-27T10:38:11.976Z,6.18
2023-09-27T10:40:46.395Z,5.07
2023-09-27T10:43:36.527Z,5.78
2023-09-27T10:46:06.757Z,5.90
2023-09-27T10:48:33.997Z,5.95
2023-09-27T10:51:01.412Z,6.22
2023-09-27T10:53:28.372Z,5.25
2023-09-27T10:55:55.732Z,4.90
2023-09-27T10:58:22.820Z,4.93
2023-09-27T11:01:02.176Z,5.68
2023-09-27T11:03:31.048Z,5.55
2023-09-27T11:06:15.518Z,5.57
2023-09-27T11:08:43.268Z,5.60
2023-09-27T11:11:13.625Z,5.93
2023-09-27T11:13:46.775Z,6.03
2023-09-27T11:16:19.520Z,5.70
2023-09-27T11:18:50.089Z,5.63
2023-09-27T11:21:17.636Z,5.78
2023-09-27T11:23:58.799Z,5.90
2023-09-27T11:26:28.051Z,5.32
2023-09-27T11:29:05.057Z,5.38
2023-09-27T11:31:33.855Z,5.38
2023-09-27T11:34:20.555Z,5.25
2023-09-27T11:36:52.504Z,5.13
2023-09-27T11:39:30.985Z,5.38
2023-09-27T11:42:00.516Z,4.65
2023-09-27T11:44:29.005Z,5.68
2023-09-27T11:47:07.617Z,5.25
2023-09-27T11:49:35.748Z,5.35
2023-09-27T11:52:03.752Z,5.15
2023-09-27T11:54:31.093Z,5.63
2023-09-27T11:56:58.937Z,5.50
2023-09-27T11:59:26.104Z,5.95
2023-09-27T12:01:53.232Z,5.07
2023-09-27T12:04:20.891Z,4.85
2023-09-27T12:06:48.683Z,4.93
2023-09-27T12:09:16.476Z,5.22
2023-09-27T12:11:43.542Z,5.25
2023-09-27T12:14:10.782Z,5.13
2023-09-27T12:16:37.954Z,5.25
2023-09-27T12:19:05.035Z,5.28
2023-09-27T12:21:36.134Z,4.72
2023-09-27T12:24:04.600Z,4.60
2023-09-27T12:26:31.627Z,4.70
2023-09-27T12:28:58.603Z,5.47
2023-09-27T12:31:25.638Z,5.30
2023-09-27T12:33:52.829Z,4.82
2023-09-27T12:36:19.889Z,5.10
2023-09-27T12:38:46.919Z,5.47
2023-09-27T12:41:14.282Z,5.50
2023-09-27T12:43:42.137Z,5.38
2023-09-27T12:46:10.413Z,5.60
2023-09-27T12:48:38.275Z,5.68
2023-09-27T12:51:08.957Z,5.28
2023-09-27T12:53:35.919Z,5.70
2023-09-27T12:56:08.002Z,5.30
2023-09-27T12:58:36.066Z,5.55
2023-09-27T13:01:03.315Z,5.15
2023-09-27T13:03:32.828Z,5.68
2023-09-27T13:06:00.075Z,4.72
2023-09-27T13:08:27.167Z,5.50
2023-09-27T13:10:54.340Z,5.50
2023-09-27T13:13:21.355Z,5.03
2023-09-27T13:15:48.610Z,4.90
2023-09-27T13:18:15.733Z,4.63
2023-09-27T13:20:43.057Z,3.60
2023-09-27T13:23:11.192Z,3.83
2023-09-27T13:25:38.248Z,3.72
2023-09-27T13:28:05.568Z,3.80
2023-09-27T13:30:36.516Z,3.47
2023-09-27T13:33:04.911Z,3.95
2023-09-27T13:35:35.030Z,3.53
2023-09-27T13:38:07.398Z,3.60
2023-09-27T13:40:38.686Z,3.97
2023-09-27T13:43:06.496Z,3.67
2023-09-27T13:45:33.786Z,3.75
2023-09-27T13:48:01.882Z,4.05
2023-09-27T13:50:33.358Z,3.55
2023-09-27T13:53:01.822Z,4.00
2023-09-27T13:55:28.776Z,3.88
2023-09-27T13:57:57.104Z,4.22
2023-09-27T14:00:24.310Z,4.30
2023-09-27T14:02:52.292Z,4.60
2023-09-27T14:05:20.071Z,3.88
2023-09-27T14:07:47.033Z,5.00
2023-09-27T14:10:13.924Z,3.90
2023-09-27T14:12:42.009Z,4.55
2023-09-27T14:15:10.545Z,4.00
2023-09-27T14:17:40.044Z,4.53
2023-09-27T14:20:07.801Z,3.90
2023-09-27T14:22:34.694Z,3.60
2023-09-27T14:25:01.608Z,3.47
2023-09-27T14:27:28.748Z,3.58
2023-09-27T14:29:55.588Z,3.47
2023-09-27T14:32:23.559Z,3.72
2023-09-27T14:37:20.554Z,3.50
2023-09-27T14:39:48.606Z,3.30
2023-09-27T14:42:15.776Z,4.05
2023-09-27T14:44:42.736Z,3.22
2023-09-27T14:47:09.880Z,3.38
2023-09-27T14:49:36.877Z,3.63
2023-09-27T14:52:03.960Z,3.60
2023-09-27T14:54:30.872Z,2.80
2023-09-27T14:56:59.748Z,3.30
2023-09-27T14:59:26.923Z,3.15
2023-09-27T15:01:59.122Z,3.25
2023-09-27T15:04:27.743Z,3.85
2023-09-27T15:06:56.147Z,3.67
2023-09-27T15:09:23.050Z,3.67
2023-09-27T15:11:49.880Z,3.47
2023-09-27T15:14:16.771Z,3.20
2023-09-27T15:16:44.182Z,3.25
2023-09-27T15:19:11.225Z,3.33
2023-09-27T15:21:38.040Z,2.90
2023-09-27T15:24:05.731Z,3.08
2023-09-27T15:26:33.461Z,3.65
2023-09-27T15:29:01.475Z,2.85
2023-09-27T15:31:30.030Z,3.22
2023-09-27T15:33:57.996Z,3.55
2023-09-27T15:36:28.522Z,2.88
2023-09-27T15:38:55.543Z,3.15
2023-09-27T15:41:22.800Z,3.38
2023-09-27T15:43:50.960Z,3.53
2023-09-27T15:46:19.425Z,3.30
2023-09-27T15:48:47.823Z,3.13
2023-09-27T15:51:16.753Z,3.15
2023-09-27T15:53:43.830Z,3.38
2023-09-27T15:56:11.884Z,3.42
2023-09-27T15:58:39.529Z,3.50
2023-09-27T16:01:08.005Z,3.65
2023-09-27T16:03:36.374Z,3.50
2023-09-27T16:06:05.490Z,3.40
2023-09-27T16:08:32.899Z,3.38
2023-09-27T16:11:00.785Z,3.70
2023-09-27T16:13:29.209Z,3.83
2023-09-27T16:15:56.334Z,3.67
2023-09-27T16:18:23.450Z,3.30
2023-09-27T16:20:50.575Z,3.35
2023-09-27T16:23:17.868Z,3.13
2023-09-27T16:25:47.619Z,3.33
2023-09-27T16:28:16.210Z,3.72
2023-09-27T16:30:43.857Z,3.90
2023-09-27T16:33:11.265Z,3.60
2023-09-27T16:35:39.550Z,3.17
2023-09-27T16:38:07.106Z,3.38
2023-09-27T16:40:34.272Z,3.45
2023-09-27T16:43:01.484Z,3.40
2023-09-27T16:45:28.854Z,3.33
2023-09-27T16:47:55.999Z,3.08
2023-09-27T16:50:23.330Z,2.88
2023-09-27T16:52:50.377Z,3.40
2023-09-27T16:55:17.734Z,3.40
2023-09-27T16:57:44.810Z,3.55
2023-09-27T17:00:12.411Z,3.63
2023-09-27T17:02:40.801Z,3.00
2023-09-27T17:05:08.690Z,3.30
2023-09-27T17:07:36.961Z,3.45
2023-09-27T17:10:06.187Z,2.83
2023-09-27T17:12:33.211Z,3.10
2023-09-27T17:15:00.320Z,3.60
2023-09-27T17:17:27.510Z,3.67
2023-09-27T17:19:54.459Z,3.17
2023-09-27T17:22:21.438Z,2.88
2023-09-27T17:24:50.315Z,2.97
2023-09-27T17:27:18.227Z,3.70
2023-09-27T17:29:45.487Z,3.47
2023-09-27T17:32:13.081Z,3.40
2023-09-27T17:34:40.397Z,3.80
2023-09-27T17:37:08.744Z,3.88
2023-09-27T17:39:36.640Z,4.43
2023-09-27T17:42:03.942Z,3.60
2023-09-27T17:44:30.959Z,4.10
2023-09-27T17:47:01.780Z,4.80
2023-09-27T17:49:29.901Z,4.22
2023-09-27T17:51:56.741Z,4.15
2023-09-27T17:54:24.165Z,3.35
2023-09-27T17:56:54.254Z,3.75
2023-09-27T17:59:21.336Z,4.00
2023-09-27T18:01:49.496Z,3.47
2023-09-27T18:04:17.508Z,3.78
2023-09-27T18:06:44.422Z,4.35
2023-09-27T18:09:11.444Z,4.05
2023-09-27T18:11:38.319Z,3.78
2023-09-27T18:14:05.580Z,4.05
2023-09-27T18:16:32.596Z,3.65
2023-09-27T18:19:00.152Z,3.80
2023-09-27T18:21:29.167Z,3.42
2023-09-27T18:23:56.470Z,4.18
2023-09-27T18:26:24.014Z,3.30
2023-09-27T18:28:51.053Z,4.20
2023-09-27T18:31:19.696Z,3.50
2023-09-27T18:33:47.177Z,3.38
2023-09-27T18:36:14.250Z,3.53
2023-09-27T18:38:41.343Z,3.55
2023-09-27T18:41:08.514Z,4.20
2023-09-27T18:43:35.631Z,4.28
2023-09-27T18:46:03.524Z,3.40
2023-09-27T18:48:30.715Z,3.53
2023-09-27T18:51:00.660Z,3.75
2023-09-27T18:53:27.590Z,3.47
2023-09-27T18:55:56.788Z,3.40
2023-09-27T18:58:25.363Z,3.75
2023-09-27T19:00:52.767Z,3.88
2023-09-27T19:03:20.725Z,4.00
2023-09-27T19:05:47.618Z,3.72
2023-09-27T19:08:14.551Z,3.90
2023-09-27T19:10:42.051Z,3.83
2023-09-27T19:13:09.227Z,3.45
2023-09-27T19:15:36.420Z,3.70
2023-09-27T19:18:03.764Z,3.72
2023-09-27T19:20:32.775Z,3.70
2023-09-27T19:23:00.869Z,4.10
2023-09-27T19:25:27.983Z,3.53
2023-09-27T19:27:54.863Z,3.70
2023-09-27T19:30:22.185Z,4.00
2023-09-27T19:32:49.436Z,3.60
2023-09-27T19:35:16.824Z,3.35
2023-09-27T19:37:43.959Z,3.33
2023-09-27T19:40:11.420Z,3.33
2023-09-27T19:42:39.128Z,3.80
2023-09-27T19:45:06.981Z,3.65
2023-09-27T19:47:36.195Z,3.28
2023-09-27T19:50:04.624Z,3.83
2023-09-27T19:52:31.805Z,3.50
2023-09-27T19:54:59.235Z,3.08
2023-09-27T19:57:26.134Z,3.30
2023-09-27T19:59:53.574Z,3.33
2023-09-27T20:02:21.070Z,3.60
2023-09-27T20:04:48.315Z,3.70
2023-09-27T20:07:15.309Z,3.30
2023-09-27T20:09:43.521Z,3.30
2023-09-27T20:12:10.679Z,3.30
2023-09-27T20:14:37.964Z,3.03
2023-09-27T20:17:05.084Z,3.28
2023-09-27T20:19:32.048Z,4.00
2023-09-27T20:21:59.165Z,3.53
2023-09-27T20:24:27.042Z,3.20
2023-09-27T20:26:54.299Z,3.63
2023-09-27T20:29:21.713Z,3.00
2023-09-27T20:31:48.787Z,3.38
2023-09-27T20:34:15.829Z,3.13
2023-09-27T20:36:43.072Z,3.15
2023-09-27T20:39:10.195Z,2.90
2023-09-27T20:41:37.275Z,3.03
2023-09-27T20:44:04.653Z,3.53
2023-09-27T20:46:31.785Z,3.17
2023-09-27T20:49:00.504Z,3.55
2023-09-27T20:51:27.447Z,3.22
2023-09-27T20:53:55.541Z,3.40
2023-09-27T20:56:22.881Z,3.28
2023-09-27T20:58:49.968Z,3.55
2023-09-27T21:01:28.969Z,3.75
2023-09-27T21:03:57.512Z,3.45
2023-09-27T21:06:29.136Z,3.50
2023-09-27T21:09:04.266Z,3.60
2023-09-27T21:11:31.651Z,3.70
2023-09-27T21:14:00.848Z,3.40
2023-09-27T21:16:29.511Z,3.45
2023-09-27T21:18:57.846Z,3.30
2023-09-27T21:21:25.216Z,3.20
2023-09-27T21:23:53.703Z,3.28
2023-09-27T21:26:21.730Z,3.22
2023-09-27T21:28:48.943Z,3.10
2023-09-27T21:31:16.348Z,3.60
2023-09-27T21:33:44.762Z,3.25
2023-09-27T21:36:12.041Z,3.40
2023-09-27T21:38:40.267Z,3.50
2023-09-27T21:41:07.675Z,3.42
2023-09-27T21:43:34.984Z,3.47
2023-09-27T21:46:02.621Z,3.95
2023-09-27T21:48:30.374Z,3.45
2023-09-27T21:50:57.307Z,3.67
2023-09-27T21:53:24.262Z,3.30
2023-09-27T21:55:51.386Z,3.78
2023-09-27T21:58:18.440Z,3.90
2023-09-27T22:00:45.488Z,3.60
2023-09-27T22:03:14.633Z,4.13
2023-09-27T22:05:42.227Z,4.68
2023-09-27T22:08:18.256Z,3.60
2023-09-27T22:10:45.856Z,3.53
2023-09-27T22:13:22.969Z,3.70
2023-09-27T22:16:09.803Z,3.70
2023-09-27T22:18:51.087Z,3.60
2023-09-27T22:21:38.629Z,3.58
2023-09-27T22:24:13.418Z,3.67
2023-09-27T22:26:47.161Z,3.85
2023-09-27T22:29:15.435Z,3.85
2023-09-27T22:31:43.684Z,3.72
2023-09-27T22:34:24.536Z,3.58
2023-09-27T22:36:52.555Z,3.65
2023-09-27T22:39:20.559Z,3.53
2023-09-27T22:41:49.765Z,3.53
2023-09-27T22:44:20.673Z,3.20
2023-09-27T22:46:52.968Z,3.55
2023-09-27T22:49:21.999Z,2.97
2023-09-27T22:51:49.471Z,3.45
2023-09-27T22:54:18.136Z,3.30
2023-09-27T22:56:46.521Z,3.38
2023-09-27T22:59:15.425Z,3.35
2023-09-27T23:01:44.554Z,4.15
2023-09-27T23:04:16.842Z,3.58
2023-09-27T23:07:01.260Z,3.78
2023-09-27T23:09:35.337Z,4.13
2023-09-27T23:12:18.798Z,3.50
2023-09-27T23:15:04.983Z,3.70
2023-09-27T23:17:44.160Z,3.92
2023-09-27T23:20:12.687Z,3.65
2023-09-27T23:22:57.960Z,3.50
2023-09-27T23:25:41.030Z,4.28
2023-09-27T23:28:08.569Z,4.18
2023-09-27T23:30:35.739Z,3.53
2023-09-27T23:33:02.985Z,4.30
2023-09-27T23:35:32.265Z,4.13
2023-09-27T23:38:11.152Z,4.30
2023-09-27T23:40:42.995Z,4.28
2023-09-27T23:43:10.604Z,4.25
2023-09-27T23:45:38.956Z,4.65
2023-09-27T23:48:12.383Z,4.07
2023-09-27T23:50:41.608Z,3.92
2023-09-27T23:53:08.698Z,4.10
2023-09-27T23:55:42.448Z,3.85
2023-09-27T23:58:13.812Z,4.30
